sensor_id;sensor_type;location;lat;lon;timestamp;temperature;humidity
44886;DHT22;36669;51.428;21.162;2023-04-06T00:01:21;-0.20;99.90
44886;DHT22;36669;51.428;21.162;2023-04-06T00:03:51;-0.20;99.90
44886;DHT22;36669;51.428;21.162;2023-04-06T00:06:17;-0.30;99.90
44886;DHT22;36669;51.428;21.162;2023-04-06T00:08:43;-0.30;99.90
44886;DHT22;36669;51.428;21.162;2023-04-06T00:11:12;-0.30;99.90
44886;DHT22;36669;51.428;21.162;2023-04-06T00:13:40;-0.30;99.90
44886;DHT22;36669;51.428;21.162;2023-04-06T00:16:06;-0.40;99.90
44886;DHT22;36669;51.428;21.162;2023-04-06T00:18:33;-0.40;99.90
44886;DHT22;36669;51.428;21.162;2023-04-06T00:21:00;-0.40;99.90
44886;DHT22;36669;51.428;21.162;2023-04-06T00:23:28;-0.40;99.90
44886;DHT22;36669;51.428;21.162;2023-04-06T00:25:55;-0.40;99.90
44886;DHT22;36669;51.428;21.162;2023-04-06T00:28:22;-0.50;99.90
44886;DHT22;36669;51.428;21.162;2023-04-06T00:30:52;-0.50;99.90
44886;DHT22;36669;51.428;21.162;2023-04-06T00:33:24;-0.60;99.90
44886;DHT22;36669;51.428;21.162;2023-04-06T00:35:52;-0.60;99.90
44886;DHT22;36669;51.428;21.162;2023-04-06T00:38:19;-0.60;99.90
44886;DHT22;36669;51.428;21.162;2023-04-06T00:40:46;-0.70;99.90
44886;DHT22;36669;51.428;21.162;2023-04-06T00:43:15;-0.70;99.90
44886;DHT22;36669;51.428;21.162;2023-04-06T00:45:41;-0.70;99.90
44886;DHT22;36669;51.428;21.162;2023-04-06T00:48:10;-0.70;99.90
44886;DHT22;36669;51.428;21.162;2023-04-06T00:50:37;-0.70;99.90
44886;DHT22;36669;51.428;21.162;2023-04-06T00:53:04;-0.80;99.90
44886;DHT22;36669;51.428;21.162;2023-04-06T00:55:31;-0.80;99.90
44886;DHT22;36669;51.428;21.162;2023-04-06T00:57:58;-0.80;99.90
44886;DHT22;36669;51.428;21.162;2023-04-06T01:00:28;-0.80;99.90
44886;DHT22;36669;51.428;21.162;2023-04-06T01:02:53;-0.80;99.90
44886;DHT22;36669;51.428;21.162;2023-04-06T01:05:19;-0.80;99.90
44886;DHT22;36669;51.428;21.162;2023-04-06T01:07:47;-0.80;99.90
44886;DHT22;36669;51.428;21.162;2023-04-06T01:10:27;-0.90;99.90
44886;DHT22;36669;51.428;21.162;2023-04-06T01:12:54;-0.80;99.90
44886;DHT22;36669;51.428;21.162;2023-04-06T01:15:21;-0.90;99.90
44886;DHT22;36669;51.428;21.162;2023-04-06T01:17:48;-0.90;99.90
44886;DHT22;36669;51.428;21.162;2023-04-06T01:20:15;-1.00;99.90
44886;DHT22;36669;51.428;21.162;2023-04-06T01:22:44;-1.00;99.90
44886;DHT22;36669;51.428;21.162;2023-04-06T01:25:12;-1.00;99.90
44886;DHT22;36669;51.428;21.162;2023-04-06T01:27:37;-1.00;99.90
44886;DHT22;36669;51.428;21.162;2023-04-06T01:30:04;-1.00;99.90
44886;DHT22;36669;51.428;21.162;2023-04-06T01:32:32;-1.00;99.90
44886;DHT22;36669;51.428;21.162;2023-04-06T01:35:00;-1.00;99.90
44886;DHT22;36669;51.428;21.162;2023-04-06T01:37:29;-1.00;99.90
44886;DHT22;36669;51.428;21.162;2023-04-06T01:40:00;-1.00;99.90
44886;DHT22;36669;51.428;21.162;2023-04-06T01:42:27;-1.00;99.90
44886;DHT22;36669;51.428;21.162;2023-04-06T01:44:56;-1.00;99.90
44886;DHT22;36669;51.428;21.162;2023-04-06T01:47:23;-1.00;99.90
44886;DHT22;36669;51.428;21.162;2023-04-06T01:49:51;-1.00;99.90
44886;DHT22;36669;51.428;21.162;2023-04-06T01:52:18;-1.00;99.90
44886;DHT22;36669;51.428;21.162;2023-04-06T01:54:43;-1.00;99.90
44886;DHT22;36669;51.428;21.162;2023-04-06T01:57:10;-1.00;99.90
44886;DHT22;36669;51.428;21.162;2023-04-06T01:59:37;-1.00;99.90
44886;DHT22;36669;51.428;21.162;2023-04-06T02:02:04;-1.00;99.90
44886;DHT22;36669;51.428;21.162;2023-04-06T02:04:31;-0.90;99.90
44886;DHT22;36669;51.428;21.162;2023-04-06T02:06:58;-0.90;99.90
44886;DHT22;36669;51.428;21.162;2023-04-06T02:09:25;-0.90;99.90
44886;DHT22;36669;51.428;21.162;2023-04-06T02:11:52;-0.90;99.90
44886;DHT22;36669;51.428;21.162;2023-04-06T02:14:19;-0.90;99.90
44886;DHT22;36669;51.428;21.162;2023-04-06T02:16:45;-0.90;99.90
44886;DHT22;36669;51.428;21.162;2023-04-06T02:19:13;-0.80;99.90
44886;DHT22;36669;51.428;21.162;2023-04-06T02:21:42;-0.80;99.90
44886;DHT22;36669;51.428;21.162;2023-04-06T02:24:08;-0.80;99.90
44886;DHT22;36669;51.428;21.162;2023-04-06T02:26:36;-0.80;99.90
44886;DHT22;36669;51.428;21.162;2023-04-06T02:29:04;-0.80;99.90
44886;DHT22;36669;51.428;21.162;2023-04-06T02:31:32;-0.70;99.90
44886;DHT22;36669;51.428;21.162;2023-04-06T02:33:58;-0.70;99.90
44886;DHT22;36669;51.428;21.162;2023-04-06T02:36:25;-0.70;99.90
44886;DHT22;36669;51.428;21.162;2023-04-06T02:38:53;-0.70;99.90
44886;DHT22;36669;51.428;21.162;2023-04-06T02:41:21;-0.70;99.90
44886;DHT22;36669;51.428;21.162;2023-04-06T02:43:49;-0.70;99.90
44886;DHT22;36669;51.428;21.162;2023-04-06T02:46:16;-0.70;99.90
44886;DHT22;36669;51.428;21.162;2023-04-06T02:48:43;-0.60;99.90
44886;DHT22;36669;51.428;21.162;2023-04-06T02:51:10;-0.70;99.90
44886;DHT22;36669;51.428;21.162;2023-04-06T02:53:37;-0.70;99.90
44886;DHT22;36669;51.428;21.162;2023-04-06T02:56:04;-0.60;99.90
44886;DHT22;36669;51.428;21.162;2023-04-06T02:58:30;-0.70;99.90
44886;DHT22;36669;51.428;21.162;2023-04-06T03:01:00;-0.70;99.90
44886;DHT22;36669;51.428;21.162;2023-04-06T03:03:27;-0.70;99.90
44886;DHT22;36669;51.428;21.162;2023-04-06T03:05:54;-0.80;99.90
44886;DHT22;36669;51.428;21.162;2023-04-06T03:08:23;-0.70;99.90
44886;DHT22;36669;51.428;21.162;2023-04-06T03:10:52;-0.70;99.90
44886;DHT22;36669;51.428;21.162;2023-04-06T03:13:20;-0.70;99.90
44886;DHT22;36669;51.428;21.162;2023-04-06T03:15:47;-0.70;99.90
44886;DHT22;36669;51.428;21.162;2023-04-06T03:18:14;-0.80;99.90
44886;DHT22;36669;51.428;21.162;2023-04-06T03:20:42;-0.80;99.90
44886;DHT22;36669;51.428;21.162;2023-04-06T03:23:10;-0.80;99.90
44886;DHT22;36669;51.428;21.162;2023-04-06T03:25:39;-0.80;99.90
44886;DHT22;36669;51.428;21.162;2023-04-06T03:28:08;-0.80;99.90
44886;DHT22;36669;51.428;21.162;2023-04-06T03:30:35;-0.80;99.90
44886;DHT22;36669;51.428;21.162;2023-04-06T03:33:02;-0.80;99.90
44886;DHT22;36669;51.428;21.162;2023-04-06T03:35:30;-0.80;99.90
44886;DHT22;36669;51.428;21.162;2023-04-06T03:37:57;-0.80;99.90
44886;DHT22;36669;51.428;21.162;2023-04-06T03:40:25;-0.80;99.90
44886;DHT22;36669;51.428;21.162;2023-04-06T03:42:52;-0.80;99.90
44886;DHT22;36669;51.428;21.162;2023-04-06T03:45:19;-0.80;99.90
44886;DHT22;36669;51.428;21.162;2023-04-06T03:47:48;-0.70;99.90
44886;DHT22;36669;51.428;21.162;2023-04-06T03:50:16;-0.80;99.90
44886;DHT22;36669;51.428;21.162;2023-04-06T03:52:43;-0.70;99.90
44886;DHT22;36669;51.428;21.162;2023-04-06T03:55:10;-0.80;99.90
44886;DHT22;36669;51.428;21.162;2023-04-06T03:57:37;-0.70;99.90
44886;DHT22;36669;51.428;21.162;2023-04-06T04:00:05;-0.70;99.90
44886;DHT22;36669;51.428;21.162;2023-04-06T04:02:31;-0.70;99.90
44886;DHT22;36669;51.428;21.162;2023-04-06T04:04:58;-0.70;99.90
44886;DHT22;36669;51.428;21.162;2023-04-06T04:07:23;-0.70;99.90
44886;DHT22;36669;51.428;21.162;2023-04-06T04:09:52;-0.70;99.90
44886;DHT22;36669;51.428;21.162;2023-04-06T04:12:18;-0.70;99.90
44886;DHT22;36669;51.428;21.162;2023-04-06T04:14:46;-0.70;99.90
44886;DHT22;36669;51.428;21.162;2023-04-06T04:17:13;-0.70;99.90
44886;DHT22;36669;51.428;21.162;2023-04-06T04:19:40;-0.70;99.90
44886;DHT22;36669;51.428;21.162;2023-04-06T04:22:08;-0.70;99.90
44886;DHT22;36669;51.428;21.162;2023-04-06T04:24:35;-0.70;99.90
44886;DHT22;36669;51.428;21.162;2023-04-06T04:27:00;-0.60;99.90
44886;DHT22;36669;51.428;21.162;2023-04-06T04:29:28;-0.60;99.90
44886;DHT22;36669;51.428;21.162;2023-04-06T04:31:55;-0.60;99.90
44886;DHT22;36669;51.428;21.162;2023-04-06T04:34:23;-0.60;99.90
44886;DHT22;36669;51.428;21.162;2023-04-06T04:36:52;-0.60;99.90
44886;DHT22;36669;51.428;21.162;2023-04-06T04:39:19;-0.60;99.90
44886;DHT22;36669;51.428;21.162;2023-04-06T04:41:47;-0.60;99.90
44886;DHT22;36669;51.428;21.162;2023-04-06T04:44:13;-0.60;99.90
44886;DHT22;36669;51.428;21.162;2023-04-06T04:46:41;-0.60;99.90
44886;DHT22;36669;51.428;21.162;2023-04-06T04:49:08;-0.50;99.90
44886;DHT22;36669;51.428;21.162;2023-04-06T04:51:35;-0.50;99.90
44886;DHT22;36669;51.428;21.162;2023-04-06T04:54:05;-0.50;99.90
44886;DHT22;36669;51.428;21.162;2023-04-06T04:56:32;-0.40;99.90
44886;DHT22;36669;51.428;21.162;2023-04-06T04:58:59;-0.40;99.90
44886;DHT22;36669;51.428;21.162;2023-04-06T05:01:25;-0.40;99.90
44886;DHT22;36669;51.428;21.162;2023-04-06T05:03:50;-0.30;99.90
44886;DHT22;36669;51.428;21.162;2023-04-06T05:06:17;-0.20;99.90
44886;DHT22;36669;51.428;21.162;2023-04-06T05:08:45;-0.20;99.90
44886;DHT22;36669;51.428;21.162;2023-04-06T05:11:12;-0.10;99.90
44886;DHT22;36669;51.428;21.162;2023-04-06T05:13:39;0.00;99.90
44886;DHT22;36669;51.428;21.162;2023-04-06T05:16:06;0.00;99.90
44886;DHT22;36669;51.428;21.162;2023-04-06T05:18:32;0.10;99.90
44886;DHT22;36669;51.428;21.162;2023-04-06T05:20:59;0.20;99.90
44886;DHT22;36669;51.428;21.162;2023-04-06T05:23:26;0.20;99.90
44886;DHT22;36669;51.428;21.162;2023-04-06T05:25:54;0.30;99.90
44886;DHT22;36669;51.428;21.162;2023-04-06T05:28:22;0.30;99.90
44886;DHT22;36669;51.428;21.162;2023-04-06T05:30:50;0.40;99.90
44886;DHT22;36669;51.428;21.162;2023-04-06T05:33:17;0.40;99.90
44886;DHT22;36669;51.428;21.162;2023-04-06T05:35:45;0.50;99.90
44886;DHT22;36669;51.428;21.162;2023-04-06T05:38:11;0.50;99.90
44886;DHT22;36669;51.428;21.162;2023-04-06T05:40:39;0.50;99.90
44886;DHT22;36669;51.428;21.162;2023-04-06T05:43:07;0.70;99.90
44886;DHT22;36669;51.428;21.162;2023-04-06T05:45:35;0.70;99.90
44886;DHT22;36669;51.428;21.162;2023-04-06T05:48:03;0.80;99.90
44886;DHT22;36669;51.428;21.162;2023-04-06T05:50:32;0.80;99.90
44886;DHT22;36669;51.428;21.162;2023-04-06T05:52:59;0.90;99.90
44886;DHT22;36669;51.428;21.162;2023-04-06T05:55:27;1.00;99.90
44886;DHT22;36669;51.428;21.162;2023-04-06T05:57:56;1.00;99.90
44886;DHT22;36669;51.428;21.162;2023-04-06T06:00:24;1.10;99.90
44886;DHT22;36669;51.428;21.162;2023-04-06T06:02:51;1.10;99.90
44886;DHT22;36669;51.428;21.162;2023-04-06T06:05:18;1.20;99.90
44886;DHT22;36669;51.428;21.162;2023-04-06T06:07:46;1.30;99.90
44886;DHT22;36669;51.428;21.162;2023-04-06T06:10:13;1.30;99.90
44886;DHT22;36669;51.428;21.162;2023-04-06T06:12:39;1.30;99.90
44886;DHT22;36669;51.428;21.162;2023-04-06T06:15:06;1.30;99.90
44886;DHT22;36669;51.428;21.162;2023-04-06T06:17:35;1.30;99.90
44886;DHT22;36669;51.428;21.162;2023-04-06T06:20:02;1.40;99.90
44886;DHT22;36669;51.428;21.162;2023-04-06T06:22:29;1.40;99.90
44886;DHT22;36669;51.428;21.162;2023-04-06T06:24:57;1.40;99.90
44886;DHT22;36669;51.428;21.162;2023-04-06T06:27:24;1.40;99.90
44886;DHT22;36669;51.428;21.162;2023-04-06T06:29:52;1.40;99.90
44886;DHT22;36669;51.428;21.162;2023-04-06T06:32:20;1.50;99.90
44886;DHT22;36669;51.428;21.162;2023-04-06T06:34:48;1.50;99.90
44886;DHT22;36669;51.428;21.162;2023-04-06T06:37:16;1.60;99.90
44886;DHT22;36669;51.428;21.162;2023-04-06T06:39:42;1.60;99.90
44886;DHT22;36669;51.428;21.162;2023-04-06T06:42:08;1.60;99.90
44886;DHT22;36669;51.428;21.162;2023-04-06T06:44:38;1.70;99.90
44886;DHT22;36669;51.428;21.162;2023-04-06T06:47:05;1.80;99.90
44886;DHT22;36669;51.428;21.162;2023-04-06T06:49:30;2.00;99.90
44886;DHT22;36669;51.428;21.162;2023-04-06T06:51:58;2.00;99.90
44886;DHT22;36669;51.428;21.162;2023-04-06T06:54:26;2.00;99.90
44886;DHT22;36669;51.428;21.162;2023-04-06T06:56:53;2.00;99.90
44886;DHT22;36669;51.428;21.162;2023-04-06T06:59:22;2.00;99.90
44886;DHT22;36669;51.428;21.162;2023-04-06T07:01:51;2.00;99.90
44886;DHT22;36669;51.428;21.162;2023-04-06T07:04:18;1.90;99.90
44886;DHT22;36669;51.428;21.162;2023-04-06T07:06:46;1.80;99.90
44886;DHT22;36669;51.428;21.162;2023-04-06T07:09:14;1.80;99.90
44886;DHT22;36669;51.428;21.162;2023-04-06T07:11:41;1.90;99.90
44886;DHT22;36669;51.428;21.162;2023-04-06T07:14:07;1.90;99.90
44886;DHT22;36669;51.428;21.162;2023-04-06T07:16:34;1.80;99.90
44886;DHT22;36669;51.428;21.162;2023-04-06T07:19:02;1.70;99.90
44886;DHT22;36669;51.428;21.162;2023-04-06T07:21:29;1.80;99.90
44886;DHT22;36669;51.428;21.162;2023-04-06T07:23:56;1.70;99.90
44886;DHT22;36669;51.428;21.162;2023-04-06T07:26:23;1.70;99.90
44886;DHT22;36669;51.428;21.162;2023-04-06T07:28:50;1.70;99.90
44886;DHT22;36669;51.428;21.162;2023-04-06T07:31:18;1.80;99.90
44886;DHT22;36669;51.428;21.162;2023-04-06T07:33:46;1.90;99.90
44886;DHT22;36669;51.428;21.162;2023-04-06T07:36:14;1.90;99.90
44886;DHT22;36669;51.428;21.162;2023-04-06T07:38:42;1.90;99.90
44886;DHT22;36669;51.428;21.162;2023-04-06T07:41:10;1.90;99.90
44886;DHT22;36669;51.428;21.162;2023-04-06T07:43:36;1.90;99.90
44886;DHT22;36669;51.428;21.162;2023-04-06T07:46:03;2.00;99.90
44886;DHT22;36669;51.428;21.162;2023-04-06T07:48:30;2.00;99.90
44886;DHT22;36669;51.428;21.162;2023-04-06T07:51:04;1.90;99.90
44886;DHT22;36669;51.428;21.162;2023-04-06T07:53:30;2.00;99.90
44886;DHT22;36669;51.428;21.162;2023-04-06T07:56:00;2.00;99.90
44886;DHT22;36669;51.428;21.162;2023-04-06T07:58:28;1.90;99.90
44886;DHT22;36669;51.428;21.162;2023-04-06T08:00:57;2.00;99.90
44886;DHT22;36669;51.428;21.162;2023-04-06T08:03:24;2.00;99.90
44886;DHT22;36669;51.428;21.162;2023-04-06T08:05:52;2.10;99.90
44886;DHT22;36669;51.428;21.162;2023-04-06T08:08:19;2.10;99.90
44886;DHT22;36669;51.428;21.162;2023-04-06T08:10:48;2.10;99.90
44886;DHT22;36669;51.428;21.162;2023-04-06T08:13:15;2.10;99.90
44886;DHT22;36669;51.428;21.162;2023-04-06T08:15:44;2.00;99.90
44886;DHT22;36669;51.428;21.162;2023-04-06T08:18:12;2.00;99.90
44886;DHT22;36669;51.428;21.162;2023-04-06T08:20:39;2.00;99.90
44886;DHT22;36669;51.428;21.162;2023-04-06T08:23:07;1.90;99.90
44886;DHT22;36669;51.428;21.162;2023-04-06T08:25:38;1.80;99.90
44886;DHT22;36669;51.428;21.162;2023-04-06T08:28:05;1.80;99.90
44886;DHT22;36669;51.428;21.162;2023-04-06T08:30:32;1.70;99.90
44886;DHT22;36669;51.428;21.162;2023-04-06T08:33:00;1.70;99.90
44886;DHT22;36669;51.428;21.162;2023-04-06T08:35:27;1.80;99.90
44886;DHT22;36669;51.428;21.162;2023-04-06T08:37:54;1.70;99.90
44886;DHT22;36669;51.428;21.162;2023-04-06T08:40:21;1.70;99.90
44886;DHT22;36669;51.428;21.162;2023-04-06T08:42:59;1.60;99.90
44886;DHT22;36669;51.428;21.162;2023-04-06T08:45:30;1.60;99.90
44886;DHT22;36669;51.428;21.162;2023-04-06T08:47:57;1.70;99.90
44886;DHT22;36669;51.428;21.162;2023-04-06T08:50:41;1.80;99.90
44886;DHT22;36669;51.428;21.162;2023-04-06T08:53:11;1.70;99.90
44886;DHT22;36669;51.428;21.162;2023-04-06T08:55:48;1.70;99.90
44886;DHT22;36669;51.428;21.162;2023-04-06T08:58:15;1.70;99.90
44886;DHT22;36669;51.428;21.162;2023-04-06T09:00:42;1.70;99.90
44886;DHT22;36669;51.428;21.162;2023-04-06T09:03:21;1.80;99.90
44886;DHT22;36669;51.428;21.162;2023-04-06T09:05:51;1.70;99.90
44886;DHT22;36669;51.428;21.162;2023-04-06T09:08:22;1.70;99.90
44886;DHT22;36669;51.428;21.162;2023-04-06T09:10:53;1.70;99.90
44886;DHT22;36669;51.428;21.162;2023-04-06T09:13:20;1.70;99.90
44886;DHT22;36669;51.428;21.162;2023-04-06T09:15:58;1.70;99.90
44886;DHT22;36669;51.428;21.162;2023-04-06T09:18:35;1.70;99.90
44886;DHT22;36669;51.428;21.162;2023-04-06T09:21:04;1.60;99.90
44886;DHT22;36669;51.428;21.162;2023-04-06T09:23:31;1.60;99.90
44886;DHT22;36669;51.428;21.162;2023-04-06T09:26:16;1.60;99.90
44886;DHT22;36669;51.428;21.162;2023-04-06T09:28:57;1.60;99.90
44886;DHT22;36669;51.428;21.162;2023-04-06T09:31:28;1.60;99.90
44886;DHT22;36669;51.428;21.162;2023-04-06T09:33:58;1.60;99.90
44886;DHT22;36669;51.428;21.162;2023-04-06T09:36:35;1.70;99.90
44886;DHT22;36669;51.428;21.162;2023-04-06T09:39:04;1.80;99.90
44886;DHT22;36669;51.428;21.162;2023-04-06T09:41:38;1.80;99.90
44886;DHT22;36669;51.428;21.162;2023-04-06T09:44:12;1.80;99.90
44886;DHT22;36669;51.428;21.162;2023-04-06T09:46:44;1.90;99.90
44886;DHT22;36669;51.428;21.162;2023-04-06T09:49:16;1.80;99.90
44886;DHT22;36669;51.428;21.162;2023-04-06T09:51:48;1.80;99.90
44886;DHT22;36669;51.428;21.162;2023-04-06T09:54:23;1.90;99.90
44886;DHT22;36669;51.428;21.162;2023-04-06T10:00:14;2.00;99.90
44886;DHT22;36669;51.428;21.162;2023-04-06T10:02:52;1.90;99.90
44886;DHT22;36669;51.428;21.162;2023-04-06T10:05:58;1.80;99.90
44886;DHT22;36669;51.428;21.162;2023-04-06T10:08:28;1.70;99.90
44886;DHT22;36669;51.428;21.162;2023-04-06T10:10:55;1.70;99.90
44886;DHT22;36669;51.428;21.162;2023-04-06T10:13:24;1.60;99.90
44886;DHT22;36669;51.428;21.162;2023-04-06T10:15:53;1.60;99.90
44886;DHT22;36669;51.428;21.162;2023-04-06T10:18:21;1.60;99.90
44886;DHT22;36669;51.428;21.162;2023-04-06T10:21:04;1.60;99.90
44886;DHT22;36669;51.428;21.162;2023-04-06T10:23:53;1.60;99.90
44886;DHT22;36669;51.428;21.162;2023-04-06T10:26:23;1.60;99.90
44886;DHT22;36669;51.428;21.162;2023-04-06T10:28:49;1.60;99.90
44886;DHT22;36669;51.428;21.162;2023-04-06T10:31:27;1.60;99.90
44886;DHT22;36669;51.428;21.162;2023-04-06T10:34:01;1.60;99.90
44886;DHT22;36669;51.428;21.162;2023-04-06T10:36:34;1.60;99.90
44886;DHT22;36669;51.428;21.162;2023-04-06T10:39:02;1.60;99.90
44886;DHT22;36669;51.428;21.162;2023-04-06T10:41:45;1.50;99.90
44886;DHT22;36669;51.428;21.162;2023-04-06T10:44:23;1.50;99.90
44886;DHT22;36669;51.428;21.162;2023-04-06T10:46:57;1.40;99.90
44886;DHT22;36669;51.428;21.162;2023-04-06T10:49:28;1.40;99.90
44886;DHT22;36669;51.428;21.162;2023-04-06T10:51:56;1.50;99.90
44886;DHT22;36669;51.428;21.162;2023-04-06T10:54:26;1.50;99.90
44886;DHT22;36669;51.428;21.162;2023-04-06T10:57:02;1.50;99.90
44886;DHT22;36669;51.428;21.162;2023-04-06T10:59:29;1.50;99.90
44886;DHT22;36669;51.428;21.162;2023-04-06T11:01:58;1.50;99.90
44886;DHT22;36669;51.428;21.162;2023-04-06T11:04:26;1.60;99.90
44886;DHT22;36669;51.428;21.162;2023-04-06T11:06:53;1.50;99.90
44886;DHT22;36669;51.428;21.162;2023-04-06T11:09:28;1.50;99.90
44886;DHT22;36669;51.428;21.162;2023-04-06T11:11:55;1.50;99.90
44886;DHT22;36669;51.428;21.162;2023-04-06T11:14:25;1.50;99.90
44886;DHT22;36669;51.428;21.162;2023-04-06T11:16:54;1.50;99.90
44886;DHT22;36669;51.428;21.162;2023-04-06T11:19:21;1.50;99.90
44886;DHT22;36669;51.428;21.162;2023-04-06T11:21:50;1.40;99.90
44886;DHT22;36669;51.428;21.162;2023-04-06T11:24:23;1.40;99.90
44886;DHT22;36669;51.428;21.162;2023-04-06T11:27:01;1.40;99.90
44886;DHT22;36669;51.428;21.162;2023-04-06T11:29:35;1.40;99.90
44886;DHT22;36669;51.428;21.162;2023-04-06T11:32:05;1.40;99.90
44886;DHT22;36669;51.428;21.162;2023-04-06T11:34:57;1.40;99.90
44886;DHT22;36669;51.428;21.162;2023-04-06T11:37:26;1.40;99.90
44886;DHT22;36669;51.428;21.162;2023-04-06T11:39:55;1.40;99.90
44886;DHT22;36669;51.428;21.162;2023-04-06T11:42:28;1.50;99.90
44886;DHT22;36669;51.428;21.162;2023-04-06T11:44:58;1.50;99.90
44886;DHT22;36669;51.428;21.162;2023-04-06T11:47:36;1.50;99.90
44886;DHT22;36669;51.428;21.162;2023-04-06T11:50:13;1.50;99.90
44886;DHT22;36669;51.428;21.162;2023-04-06T11:52:43;1.50;99.90
44886;DHT22;36669;51.428;21.162;2023-04-06T11:55:20;1.50;99.90
44886;DHT22;36669;51.428;21.162;2023-04-06T11:57:46;1.50;99.90
44886;DHT22;36669;51.428;21.162;2023-04-06T12:00:15;1.50;99.90
44886;DHT22;36669;51.428;21.162;2023-04-06T12:02:46;1.50;99.90
44886;DHT22;36669;51.428;21.162;2023-04-06T12:05:15;1.50;99.90
44886;DHT22;36669;51.428;21.162;2023-04-06T12:07:42;1.50;99.90
44886;DHT22;36669;51.428;21.162;2023-04-06T12:10:09;1.50;99.90
44886;DHT22;36669;51.428;21.162;2023-04-06T12:12:37;1.50;99.90
44886;DHT22;36669;51.428;21.162;2023-04-06T12:15:04;1.50;99.90
44886;DHT22;36669;51.428;21.162;2023-04-06T12:17:30;1.60;99.90
44886;DHT22;36669;51.428;21.162;2023-04-06T12:19:58;1.60;99.90
44886;DHT22;36669;51.428;21.162;2023-04-06T12:22:25;1.50;99.90
44886;DHT22;36669;51.428;21.162;2023-04-06T12:24:50;1.50;99.90
44886;DHT22;36669;51.428;21.162;2023-04-06T12:27:18;1.50;99.90
44886;DHT22;36669;51.428;21.162;2023-04-06T12:29:47;1.50;99.90
44886;DHT22;36669;51.428;21.162;2023-04-06T12:32:15;1.50;99.90
44886;DHT22;36669;51.428;21.162;2023-04-06T12:34:41;1.60;99.90
44886;DHT22;36669;51.428;21.162;2023-04-06T12:37:08;1.50;99.90
44886;DHT22;36669;51.428;21.162;2023-04-06T12:39:35;1.50;99.90
44886;DHT22;36669;51.428;21.162;2023-04-06T12:42:03;1.50;99.90
44886;DHT22;36669;51.428;21.162;2023-04-06T12:44:32;1.50;99.90
44886;DHT22;36669;51.428;21.162;2023-04-06T12:46:59;1.50;99.90
44886;DHT22;36669;51.428;21.162;2023-04-06T12:49:26;1.60;99.90
44886;DHT22;36669;51.428;21.162;2023-04-06T12:51:56;1.60;99.90
44886;DHT22;36669;51.428;21.162;2023-04-06T12:54:22;1.60;99.90
44886;DHT22;36669;51.428;21.162;2023-04-06T12:56:49;1.60;99.90
44886;DHT22;36669;51.428;21.162;2023-04-06T12:59:27;1.60;99.90
44886;DHT22;36669;51.428;21.162;2023-04-06T13:02:04;1.60;99.90
44886;DHT22;36669;51.428;21.162;2023-04-06T13:04:32;1.60;99.90
44886;DHT22;36669;51.428;21.162;2023-04-06T13:07:01;1.70;99.90
44886;DHT22;36669;51.428;21.162;2023-04-06T13:09:27;1.60;99.90
44886;DHT22;36669;51.428;21.162;2023-04-06T13:11:54;1.60;99.90
44886;DHT22;36669;51.428;21.162;2023-04-06T13:14:22;1.70;99.90
44886;DHT22;36669;51.428;21.162;2023-04-06T13:16:50;1.70;99.90
44886;DHT22;36669;51.428;21.162;2023-04-06T13:19:18;1.70;99.90
44886;DHT22;36669;51.428;21.162;2023-04-06T13:21:46;1.70;99.90
44886;DHT22;36669;51.428;21.162;2023-04-06T13:24:13;1.70;99.90
44886;DHT22;36669;51.428;21.162;2023-04-06T13:26:40;1.70;99.90
44886;DHT22;36669;51.428;21.162;2023-04-06T13:29:07;1.70;99.90
44886;DHT22;36669;51.428;21.162;2023-04-06T13:31:35;1.60;99.90
44886;DHT22;36669;51.428;21.162;2023-04-06T13:34:05;1.70;99.90
44886;DHT22;36669;51.428;21.162;2023-04-06T13:36:32;1.70;99.90
44886;DHT22;36669;51.428;21.162;2023-04-06T13:38:59;1.70;99.90
44886;DHT22;36669;51.428;21.162;2023-04-06T13:41:26;1.70;99.90
44886;DHT22;36669;51.428;21.162;2023-04-06T13:43:52;1.70;99.90
44886;DHT22;36669;51.428;21.162;2023-04-06T13:46:21;1.70;99.90
44886;DHT22;36669;51.428;21.162;2023-04-06T13:48:49;1.70;99.90
44886;DHT22;36669;51.428;21.162;2023-04-06T13:51:17;1.70;99.90
44886;DHT22;36669;51.428;21.162;2023-04-06T13:53:44;1.70;99.90
44886;DHT22;36669;51.428;21.162;2023-04-06T13:56:11;1.70;99.90
44886;DHT22;36669;51.428;21.162;2023-04-06T13:58:38;1.70;99.90
44886;DHT22;36669;51.428;21.162;2023-04-06T14:01:09;1.70;99.90
44886;DHT22;36669;51.428;21.162;2023-04-06T14:03:36;1.80;99.90
44886;DHT22;36669;51.428;21.162;2023-04-06T14:06:13;1.70;99.90
44886;DHT22;36669;51.428;21.162;2023-04-06T14:08:42;1.80;99.90
44886;DHT22;36669;51.428;21.162;2023-04-06T14:11:12;1.80;99.90
44886;DHT22;36669;51.428;21.162;2023-04-06T14:13:39;1.80;99.90
44886;DHT22;36669;51.428;21.162;2023-04-06T14:16:07;1.80;99.90
44886;DHT22;36669;51.428;21.162;2023-04-06T14:18:36;1.80;99.90
44886;DHT22;36669;51.428;21.162;2023-04-06T14:21:03;1.80;99.90
44886;DHT22;36669;51.428;21.162;2023-04-06T14:23:29;1.90;99.90
44886;DHT22;36669;51.428;21.162;2023-04-06T14:26:21;1.80;99.90
44886;DHT22;36669;51.428;21.162;2023-04-06T14:28:48;1.80;99.90
44886;DHT22;36669;51.428;21.162;2023-04-06T14:31:16;1.80;99.90
44886;DHT22;36669;51.428;21.162;2023-04-06T14:33:43;1.80;99.90
44886;DHT22;36669;51.428;21.162;2023-04-06T14:36:10;1.80;99.90
44886;DHT22;36669;51.428;21.162;2023-04-06T14:38:37;1.80;99.90
44886;DHT22;36669;51.428;21.162;2023-04-06T14:41:05;1.80;99.90
44886;DHT22;36669;51.428;21.162;2023-04-06T14:43:32;1.80;99.90
44886;DHT22;36669;51.428;21.162;2023-04-06T14:46:02;1.80;99.90
44886;DHT22;36669;51.428;21.162;2023-04-06T14:48:29;1.90;99.90
44886;DHT22;36669;51.428;21.162;2023-04-06T14:50:57;1.90;99.90
44886;DHT22;36669;51.428;21.162;2023-04-06T14:53:27;1.90;99.90
44886;DHT22;36669;51.428;21.162;2023-04-06T14:55:56;1.90;99.90
44886;DHT22;36669;51.428;21.162;2023-04-06T14:58:29;1.90;99.90
44886;DHT22;36669;51.428;21.162;2023-04-06T15:00:57;1.90;99.90
44886;DHT22;36669;51.428;21.162;2023-04-06T15:03:27;1.90;99.90
44886;DHT22;36669;51.428;21.162;2023-04-06T15:05:55;1.90;99.90
44886;DHT22;36669;51.428;21.162;2023-04-06T15:08:26;1.90;99.90
44886;DHT22;36669;51.428;21.162;2023-04-06T15:10:53;1.90;99.90
44886;DHT22;36669;51.428;21.162;2023-04-06T15:13:23;1.90;99.90
44886;DHT22;36669;51.428;21.162;2023-04-06T15:15:50;2.00;99.90
44886;DHT22;36669;51.428;21.162;2023-04-06T15:18:18;2.00;99.90
44886;DHT22;36669;51.428;21.162;2023-04-06T15:20:44;2.00;99.90
44886;DHT22;36669;51.428;21.162;2023-04-06T15:23:14;2.00;99.90
44886;DHT22;36669;51.428;21.162;2023-04-06T15:25:41;2.00;99.90
44886;DHT22;36669;51.428;21.162;2023-04-06T15:28:09;2.00;99.90
44886;DHT22;36669;51.428;21.162;2023-04-06T15:30:36;2.00;99.90
44886;DHT22;36669;51.428;21.162;2023-04-06T15:33:07;2.00;99.90
44886;DHT22;36669;51.428;21.162;2023-04-06T15:35:35;2.00;99.90
44886;DHT22;36669;51.428;21.162;2023-04-06T15:38:06;2.10;99.90